Albany Township, Maine
Current Conditions -  °F | °C
As of 7:52 AM on Thursday 23 Oct 2014 (Local Time) from KBML Reporting Station
Light Rain Light Rain  
Wind Chill:   Ceiling: 1200
Heat Index:   Visibility: 10mi
Dew Point:   Wind: 5mph
Humidity: 96%   Direction: NA
Pressure: 29.94"   Gusts: NA
Location:  44.3718°N, 70.8421°W
Report Text: KBML 231152Z AUTO VRB04KT 10SM -RA BKN012 OVC019 07/06 A2994 RMK AO2 SLP147 P0001 60004 70017 T00670061 10072 20067 56012
Loading
Personal Weather Stations






























Interactive Weather Map
Tropical Storm Tracking
New forecast layout! Learn more

10-Day Weather Forecast

Advertisements
Track Severe Weather on mobile